sensor_id;sensor_type;location;lat;lon;timestamp;pressure;altitude;pressure_sealevel;temperature
64394;BMP280;50712;49.506;10.400;2023-09-30T00:00:08;98760.56;;;20.93
64394;BMP280;50712;49.506;10.400;2023-09-30T00:00:41;98755.78;;;20.93
64394;BMP280;50712;49.506;10.400;2023-09-30T00:01:12;98764.09;;;20.93
64394;BMP280;50712;49.506;10.400;2023-09-30T00:01:44;98757.78;;;20.93
64394;BMP280;50712;49.506;10.400;2023-09-30T00:02:14;98764.84;;;20.94
64394;BMP280;50712;49.506;10.400;2023-09-30T00:02:45;98755.78;;;20.93
64394;BMP280;50712;49.506;10.400;2023-09-30T00:03:15;98763.31;;;20.93
64394;BMP280;50712;49.506;10.400;2023-09-30T00:03:45;98759.78;;;20.92
64394;BMP280;50712;49.506;10.400;2023-09-30T00:04:15;98761.31;;;20.93
64394;BMP280;50712;49.506;10.400;2023-09-30T00:04:46;98754.25;;;20.92
64394;BMP280;50712;49.506;10.400;2023-09-30T00:05:16;98759.78;;;20.92
64394;BMP280;50712;49.506;10.400;2023-09-30T00:05:49;98760.56;;;20.93
64394;BMP280;50712;49.506;10.400;2023-09-30T00:06:20;98763.31;;;20.93
64394;BMP280;50712;49.506;10.400;2023-09-30T00:06:50;98757.78;;;20.93
64394;BMP280;50712;49.506;10.400;2023-09-30T00:07:21;98758.56;;;20.93
64394;BMP280;50712;49.506;10.400;2023-09-30T00:07:51;98762.09;;;20.94
64394;BMP280;50712;49.506;10.400;2023-09-30T00:08:21;98751.00;;;20.94
64394;BMP280;50712;49.506;10.400;2023-09-30T00:08:52;98755.78;;;20.93
64394;BMP280;50712;49.506;10.400;2023-09-30T00:09:22;98758.56;;;20.93
64394;BMP280;50712;49.506;10.400;2023-09-30T00:09:52;98754.53;;;20.94
64394;BMP280;50712;49.506;10.400;2023-09-30T00:10:23;98758.56;;;20.93
64394;BMP280;50712;49.506;10.400;2023-09-30T00:10:53;98752.25;;;20.93
64394;BMP280;50712;49.506;10.400;2023-09-30T00:11:24;98755.00;;;20.93
64394;BMP280;50712;49.506;10.400;2023-09-30T00:11:55;98758.56;;;20.93
64394;BMP280;50712;49.506;10.400;2023-09-30T00:12:25;98755.00;;;20.93
64394;BMP280;50712;49.506;10.400;2023-09-30T00:12:56;98758.56;;;20.93
64394;BMP280;50712;49.506;10.400;2023-09-30T00:13:27;98752.25;;;20.93
64394;BMP280;50712;49.506;10.400;2023-09-30T00:13:58;98756.53;;;20.94
64394;BMP280;50712;49.506;10.400;2023-09-30T00:14:28;98758.56;;;20.93
64394;BMP280;50712;49.506;10.400;2023-09-30T00:14:59;98759.31;;;20.94
64394;BMP280;50712;49.506;10.400;2023-09-30T00:15:30;98760.09;;;20.94
64394;BMP280;50712;49.506;10.400;2023-09-30T00:16:00;98759.31;;;20.94
64394;BMP280;50712;49.506;10.400;2023-09-30T00:16:30;98758.03;;;20.95
64394;BMP280;50712;49.506;10.400;2023-09-30T00:17:01;98763.59;;;20.95
64394;BMP280;50712;49.506;10.400;2023-09-30T00:17:31;98758.03;;;20.95
64394;BMP280;50712;49.506;10.400;2023-09-30T00:18:02;98761.59;;;20.95
64394;BMP280;50712;49.506;10.400;2023-09-30T00:18:32;98758.81;;;20.95
64394;BMP280;50712;49.506;10.400;2023-09-30T00:19:02;98754.53;;;20.94
64394;BMP280;50712;49.506;10.400;2023-09-30T00:19:33;98758.81;;;20.95
64394;BMP280;50712;49.506;10.400;2023-09-30T00:20:04;98765.09;;;20.96
64394;BMP280;50712;49.506;10.400;2023-09-30T00:20:35;98762.31;;;20.96
64394;BMP280;50712;49.506;10.400;2023-09-30T00:21:05;98762.31;;;20.96
64394;BMP280;50712;49.506;10.400;2023-09-30T00:21:36;98766.63;;;20.97
64394;BMP280;50712;49.506;10.400;2023-09-30T00:22:06;98767.84;;;20.96
64394;BMP280;50712;49.506;10.400;2023-09-30T00:22:37;98764.63;;;20.97
64394;BMP280;50712;49.506;10.400;2023-09-30T00:23:07;98760.31;;;20.96
64394;BMP280;50712;49.506;10.400;2023-09-30T00:23:37;98767.38;;;20.97
64394;BMP280;50712;49.506;10.400;2023-09-30T00:24:08;98770.16;;;20.97
64394;BMP280;50712;49.506;10.400;2023-09-30T00:24:39;98763.84;;;20.97
64394;BMP280;50712;49.506;10.400;2023-09-30T00:25:09;98766.63;;;20.97
64394;BMP280;50712;49.506;10.400;2023-09-30T00:25:42;98767.38;;;20.97
64394;BMP280;50712;49.506;10.400;2023-09-30T00:26:14;98770.16;;;20.97
64394;BMP280;50712;49.506;10.400;2023-09-30T00:26:46;98761.84;;;20.97
64394;BMP280;50712;49.506;10.400;2023-09-30T00:27:17;98759.81;;;20.98
64394;BMP280;50712;49.506;10.400;2023-09-30T00:27:48;98761.84;;;20.97
64394;BMP280;50712;49.506;10.400;2023-09-30T00:28:18;98765.34;;;20.98
64394;BMP280;50712;49.506;10.400;2023-09-30T00:28:49;98759.06;;;20.97
64394;BMP280;50712;49.506;10.400;2023-09-30T00:29:19;98762.56;;;20.98
64394;BMP280;50712;49.506;10.400;2023-09-30T00:29:50;98767.38;;;20.97
64394;BMP280;50712;49.506;10.400;2023-09-30T00:30:20;98766.63;;;20.97
64394;BMP280;50712;49.506;10.400;2023-09-30T00:30:51;98766.63;;;20.97
64394;BMP280;50712;49.506;10.400;2023-09-30T00:31:22;98767.13;;;20.95
64394;BMP280;50712;49.506;10.400;2023-09-30T00:31:52;98767.84;;;20.96
64394;BMP280;50712;49.506;10.400;2023-09-30T00:32:23;98763.59;;;20.95
64394;BMP280;50712;49.506;10.400;2023-09-30T00:32:53;98760.81;;;20.95
64394;BMP280;50712;49.506;10.400;2023-09-30T00:33:24;98764.84;;;20.94
64394;BMP280;50712;49.506;10.400;2023-09-30T00:33:55;98773.16;;;20.94
64394;BMP280;50712;49.506;10.400;2023-09-30T00:34:26;98765.34;;;20.92
64394;BMP280;50712;49.506;10.400;2023-09-30T00:34:56;98772.88;;;20.92
64394;BMP280;50712;49.506;10.400;2023-09-30T00:35:26;98777.69;;;20.91
64394;BMP280;50712;49.506;10.400;2023-09-30T00:35:57;98770.13;;;20.92
64394;BMP280;50712;49.506;10.400;2023-09-30T00:36:27;98766.34;;;20.89
64394;BMP280;50712;49.506;10.400;2023-09-30T00:36:58;98767.09;;;20.90
64394;BMP280;50712;49.506;10.400;2023-09-30T00:37:28;98761.56;;;20.90
64394;BMP280;50712;49.506;10.400;2023-09-30T00:37:58;98765.56;;;20.89
64394;BMP280;50712;49.506;10.400;2023-09-30T00:38:29;98767.59;;;20.88
64394;BMP280;50712;49.506;10.400;2023-09-30T00:38:59;98761.31;;;20.88
64394;BMP280;50712;49.506;10.400;2023-09-30T00:39:29;98766.84;;;20.88
64394;BMP280;50712;49.506;10.400;2023-09-30T00:40:00;98766.13;;;20.87
64394;BMP280;50712;49.506;10.400;2023-09-30T00:40:30;98777.66;;;20.86
64394;BMP280;50712;49.506;10.400;2023-09-30T00:41:01;98777.66;;;20.86
64394;BMP280;50712;49.506;10.400;2023-09-30T00:41:32;98769.34;;;20.86
64394;BMP280;50712;49.506;10.400;2023-09-30T00:42:02;98770.63;;;20.85
64394;BMP280;50712;49.506;10.400;2023-09-30T00:42:34;98771.88;;;20.84
64394;BMP280;50712;49.506;10.400;2023-09-30T00:43:05;98776.16;;;20.85
64394;BMP280;50712;49.506;10.400;2023-09-30T00:43:35;98770.38;;;20.83
64394;BMP280;50712;49.506;10.400;2023-09-30T00:44:06;98767.59;;;20.83
64394;BMP280;50712;49.506;10.400;2023-09-30T00:44:37;98769.59;;;20.82
64394;BMP280;50712;49.506;10.400;2023-09-30T00:45:08;98766.06;;;20.82
64394;BMP280;50712;49.506;10.400;2023-09-30T00:45:40;98772.88;;;20.81
64394;BMP280;50712;49.506;10.400;2023-09-30T00:46:29;98772.88;;;20.81
64394;BMP280;50712;49.506;10.400;2023-09-30T00:47:01;98773.34;;;20.79
64394;BMP280;50712;49.506;10.400;2023-09-30T00:47:33;98767.06;;;20.79
64394;BMP280;50712;49.506;10.400;2023-09-30T00:48:04;98769.84;;;20.79
64394;BMP280;50712;49.506;10.400;2023-09-30T00:48:35;98778.91;;;20.79
64394;BMP280;50712;49.506;10.400;2023-09-30T00:49:07;98774.66;;;20.78
64394;BMP280;50712;49.506;10.400;2023-09-30T00:49:37;98766.06;;;20.76
64394;BMP280;50712;49.506;10.400;2023-09-30T00:50:08;98771.59;;;20.76
64394;BMP280;50712;49.506;10.400;2023-09-30T00:50:40;98770.81;;;20.75
64394;BMP280;50712;49.506;10.400;2023-09-30T00:51:11;98772.84;;;20.75
64394;BMP280;50712;49.506;10.400;2023-09-30T00:51:41;98770.59;;;20.73
64394;BMP280;50712;49.506;10.400;2023-09-30T00:52:11;98769.81;;;20.73
64394;BMP280;50712;49.506;10.400;2023-09-30T00:52:42;98769.06;;;20.72
64394;BMP280;50712;49.506;10.400;2023-09-30T00:53:14;98767.56;;;20.71
64394;BMP280;50712;49.506;10.400;2023-09-30T00:53:44;98773.09;;;20.71
64394;BMP280;50712;49.506;10.400;2023-09-30T00:54:15;98772.84;;;20.69
64394;BMP280;50712;49.506;10.400;2023-09-30T00:54:47;98768.06;;;20.70
64394;BMP280;50712;49.506;10.400;2023-09-30T00:55:20;98769.03;;;20.67
64394;BMP280;50712;49.506;10.400;2023-09-30T00:55:51;98769.03;;;20.67
64394;BMP280;50712;49.506;10.400;2023-09-30T00:56:25;98768.81;;;20.65
64394;BMP280;50712;49.506;10.400;2023-09-30T00:56:57;98765.28;;;20.64
64394;BMP280;50712;49.506;10.400;2023-09-30T00:57:27;98771.28;;;20.63
64394;BMP280;50712;49.506;10.400;2023-09-30T00:57:59;98774.81;;;20.63
64394;BMP280;50712;49.506;10.400;2023-09-30T00:58:30;98776.13;;;20.62
64394;BMP280;50712;49.506;10.400;2023-09-30T00:59:01;98770.56;;;20.62
64394;BMP280;50712;49.506;10.400;2023-09-30T00:59:32;98777.34;;;20.61
64394;BMP280;50712;49.506;10.400;2023-09-30T01:00:02;98774.59;;;20.61
64394;BMP280;50712;49.506;10.400;2023-09-30T01:00:33;98773.81;;;20.61
64394;BMP280;50712;49.506;10.400;2023-09-30T01:01:05;98778.59;;;20.60
64394;BMP280;50712;49.506;10.400;2023-09-30T01:01:36;98779.09;;;20.59
64394;BMP280;50712;49.506;10.400;2023-09-30T01:02:06;98778.31;;;20.58
64394;BMP280;50712;49.506;10.400;2023-09-30T01:02:38;98782.38;;;20.57
64394;BMP280;50712;49.506;10.400;2023-09-30T01:03:10;98776.81;;;20.57
64394;BMP280;50712;49.506;10.400;2023-09-30T01:03:41;98778.84;;;20.57
64394;BMP280;50712;49.506;10.400;2023-09-30T01:04:11;98782.88;;;20.56
64394;BMP280;50712;49.506;10.400;2023-09-30T01:04:42;98780.84;;;20.56
64394;BMP280;50712;49.506;10.400;2023-09-30T01:05:13;98786.88;;;20.55
64394;BMP280;50712;49.506;10.400;2023-09-30T01:05:43;98780.56;;;20.54
64394;BMP280;50712;49.506;10.400;2023-09-30T01:06:15;98783.34;;;20.54
64394;BMP280;50712;49.506;10.400;2023-09-30T01:06:45;98789.66;;;20.55
64394;BMP280;50712;49.506;10.400;2023-09-30T01:07:16;98782.59;;;20.54
64394;BMP280;50712;49.506;10.400;2023-09-30T01:07:47;98781.84;;;20.53
64394;BMP280;50712;49.506;10.400;2023-09-30T01:08:17;98785.88;;;20.52
64394;BMP280;50712;49.506;10.400;2023-09-30T01:08:49;98782.34;;;20.52
64394;BMP280;50712;49.506;10.400;2023-09-30T01:09:20;98785.59;;;20.50
64394;BMP280;50712;49.506;10.400;2023-09-30T01:09:50;98778.56;;;20.49
64394;BMP280;50712;49.506;10.400;2023-09-30T01:10:21;98772.28;;;20.49
64394;BMP280;50712;49.506;10.400;2023-09-30T01:10:51;98783.81;;;20.47
64394;BMP280;50712;49.506;10.400;2023-09-30T01:11:22;98783.81;;;20.47
64394;BMP280;50712;49.506;10.400;2023-09-30T01:11:53;98780.81;;;20.45
64394;BMP280;50712;49.506;10.400;2023-09-30T01:12:23;98780.06;;;20.45
64394;BMP280;50712;49.506;10.400;2023-09-30T01:12:53;98783.31;;;20.43
64394;BMP280;50712;49.506;10.400;2023-09-30T01:13:31;98779.78;;;20.43
64394;BMP280;50712;49.506;10.400;2023-09-30T01:14:02;98787.81;;;20.41
64394;BMP280;50712;49.506;10.400;2023-09-30T01:14:33;98778.75;;;20.40
64394;BMP280;50712;49.506;10.400;2023-09-30T01:15:05;98778.03;;;20.40
64394;BMP280;50712;49.506;10.400;2023-09-30T01:15:36;98786.78;;;20.38
64394;BMP280;50712;49.506;10.400;2023-09-30T01:16:07;98781.25;;;20.38
64394;BMP280;50712;49.506;10.400;2023-09-30T01:16:39;98779.03;;;20.37
64394;BMP280;50712;49.506;10.400;2023-09-30T01:17:10;98775.50;;;20.36
64394;BMP280;50712;49.506;10.400;2023-09-30T01:17:49;98782.25;;;20.35
64394;BMP280;50712;49.506;10.400;2023-09-30T01:18:19;98776.72;;;20.35
64394;BMP280;50712;49.506;10.400;2023-09-30T01:18:50;98776.72;;;20.35
64394;BMP280;50712;49.506;10.400;2023-09-30T01:19:20;98783.50;;;20.34
64394;BMP280;50712;49.506;10.400;2023-09-30T01:19:52;98783.50;;;20.34
64394;BMP280;50712;49.506;10.400;2023-09-30T01:20:22;98778.50;;;20.33
64394;BMP280;50712;49.506;10.400;2023-09-30T01:20:53;98781.25;;;20.33
64394;BMP280;50712;49.506;10.400;2023-09-30T01:21:25;98777.72;;;20.32
64394;BMP280;50712;49.506;10.400;2023-09-30T01:21:57;98778.97;;;20.31
64394;BMP280;50712;49.506;10.400;2023-09-30T01:22:29;98788.53;;;20.30
64394;BMP280;50712;49.506;10.400;2023-09-30T01:23:00;98780.72;;;20.29
64394;BMP280;50712;49.506;10.400;2023-09-30T01:23:32;98773.66;;;20.28
64394;BMP280;50712;49.506;10.400;2023-09-30T01:24:03;98780.47;;;20.27
64394;BMP280;50712;49.506;10.400;2023-09-30T01:24:40;98780.47;;;20.27
64394;BMP280;50712;49.506;10.400;2023-09-30T01:25:11;98778.94;;;20.26
64394;BMP280;50712;49.506;10.400;2023-09-30T01:25:41;98777.44;;;20.25
64394;BMP280;50712;49.506;10.400;2023-09-30T01:26:14;98779.47;;;20.24
64394;BMP280;50712;49.506;10.400;2023-09-30T01:26:45;98780.69;;;20.23
64394;BMP280;50712;49.506;10.400;2023-09-30T01:27:15;98781.47;;;20.24
64394;BMP280;50712;49.506;10.400;2023-09-30T01:27:49;98786.22;;;20.23
64394;BMP280;50712;49.506;10.400;2023-09-30T01:28:21;98785.47;;;20.23
64394;BMP280;50712;49.506;10.400;2023-09-30T01:28:53;98779.16;;;20.22
64394;BMP280;50712;49.506;10.400;2023-09-30T01:29:24;98782.69;;;20.23
64394;BMP280;50712;49.506;10.400;2023-09-30T01:29:58;98786.69;;;20.22
64394;BMP280;50712;49.506;10.400;2023-09-30T01:30:29;98789.47;;;20.22
64394;BMP280;50712;49.506;10.400;2023-09-30T01:30:59;98788.69;;;20.21
64394;BMP280;50712;49.506;10.400;2023-09-30T01:31:29;98790.47;;;20.19
64394;BMP280;50712;49.506;10.400;2023-09-30T01:32:00;98789.22;;;20.20
64394;BMP280;50712;49.506;10.400;2023-09-30T01:32:31;98789.69;;;20.18
64394;BMP280;50712;49.506;10.400;2023-09-30T01:33:01;98790.97;;;20.17
64394;BMP280;50712;49.506;10.400;2023-09-30T01:33:32;98804.81;;;20.17
64394;BMP280;50712;49.506;10.400;2023-09-30T01:34:05;98800.53;;;20.16
64394;BMP280;50712;49.506;10.400;2023-09-30T01:34:36;98803.31;;;20.16
64394;BMP280;50712;49.506;10.400;2023-09-30T01:35:06;98801.03;;;20.15
64394;BMP280;50712;49.506;10.400;2023-09-30T01:35:37;98799.78;;;20.16
64394;BMP280;50712;49.506;10.400;2023-09-30T01:36:09;98799.78;;;20.16
64394;BMP280;50712;49.506;10.400;2023-09-30T01:36:40;98806.56;;;20.15
64394;BMP280;50712;49.506;10.400;2023-09-30T01:37:10;98801.03;;;20.15
64394;BMP280;50712;49.506;10.400;2023-09-30T01:37:40;98796.72;;;20.14
64394;BMP280;50712;49.506;10.400;2023-09-30T01:38:11;98805.53;;;20.12
64394;BMP280;50712;49.506;10.400;2023-09-30T01:38:41;98806.03;;;20.11
64394;BMP280;50712;49.506;10.400;2023-09-30T01:39:12;98798.97;;;20.10
64394;BMP280;50712;49.506;10.400;2023-09-30T01:39:44;98797.44;;;20.09
64394;BMP280;50712;49.506;10.400;2023-09-30T01:40:15;98805.03;;;20.08
64394;BMP280;50712;49.506;10.400;2023-09-30T01:40:48;98796.44;;;20.06
64394;BMP280;50712;49.506;10.400;2023-09-30T01:41:18;98800.47;;;20.05
64394;BMP280;50712;49.506;10.400;2023-09-30T01:41:48;98796.16;;;20.04
64394;BMP280;50712;49.506;10.400;2023-09-30T01:42:19;98795.44;;;20.04
64394;BMP280;50712;49.506;10.400;2023-09-30T01:42:49;98797.44;;;20.03
64394;BMP280;50712;49.506;10.400;2023-09-30T01:43:20;98792.38;;;20.02
64394;BMP280;50712;49.506;10.400;2023-09-30T01:43:50;98790.84;;;20.01
64394;BMP280;50712;49.506;10.400;2023-09-30T01:44:21;98797.16;;;20.01
64394;BMP280;50712;49.506;10.400;2023-09-30T01:44:51;98797.66;;;20.00
64394;BMP280;50712;49.506;10.400;2023-09-30T01:45:21;98804.44;;;19.99
64394;BMP280;50712;49.506;10.400;2023-09-30T01:45:52;98802.91;;;19.98
64394;BMP280;50712;49.506;10.400;2023-09-30T01:46:22;98802.16;;;19.97
64394;BMP280;50712;49.506;10.400;2023-09-30T01:46:53;98801.38;;;19.97
64394;BMP280;50712;49.506;10.400;2023-09-30T01:47:23;98797.13;;;19.96
64394;BMP280;50712;49.506;10.400;2023-09-30T01:47:53;98796.38;;;19.95
64394;BMP280;50712;49.506;10.400;2023-09-30T01:48:24;98792.09;;;19.94
64394;BMP280;50712;49.506;10.400;2023-09-30T01:48:54;98795.63;;;19.95
64394;BMP280;50712;49.506;10.400;2023-09-30T01:49:25;98801.63;;;19.93
64394;BMP280;50712;49.506;10.400;2023-09-30T01:49:56;98805.16;;;19.94
64394;BMP280;50712;49.506;10.400;2023-09-30T01:50:26;98802.88;;;19.92
64394;BMP280;50712;49.506;10.400;2023-09-30T01:50:57;98800.13;;;19.92
64394;BMP280;50712;49.506;10.400;2023-09-30T01:51:29;98797.84;;;19.91
64394;BMP280;50712;49.506;10.400;2023-09-30T01:52:02;98804.59;;;19.90
64394;BMP280;50712;49.506;10.400;2023-09-30T01:52:32;98806.63;;;19.89
64394;BMP280;50712;49.506;10.400;2023-09-30T01:53:03;98796.81;;;19.88
64394;BMP280;50712;49.506;10.400;2023-09-30T01:53:33;98800.84;;;19.87
64394;BMP280;50712;49.506;10.400;2023-09-30T01:54:04;98799.34;;;19.86
64394;BMP280;50712;49.506;10.400;2023-09-30T01:54:34;98799.81;;;19.85
64394;BMP280;50712;49.506;10.400;2023-09-30T01:55:06;98796.03;;;19.82
64394;BMP280;50712;49.506;10.400;2023-09-30T01:55:36;98800.78;;;19.82
64394;BMP280;50712;49.506;10.400;2023-09-30T01:56:07;98799.75;;;19.79
64394;BMP280;50712;49.506;10.400;2023-09-30T01:56:38;98799.03;;;19.79
64394;BMP280;50712;49.506;10.400;2023-09-30T01:57:08;98796.00;;;19.77
64394;BMP280;50712;49.506;10.400;2023-09-30T01:57:39;98801.22;;;19.75
64394;BMP280;50712;49.506;10.400;2023-09-30T01:58:10;98801.75;;;19.73
64394;BMP280;50712;49.506;10.400;2023-09-30T01:58:41;98811.00;;;19.70
64394;BMP280;50712;49.506;10.400;2023-09-30T01:59:11;98806.72;;;19.69
64394;BMP280;50712;49.506;10.400;2023-09-30T01:59:41;98807.19;;;19.67
64394;BMP280;50712;49.506;10.400;2023-09-30T02:00:12;98808.19;;;19.64
64394;BMP280;50712;49.506;10.400;2023-09-30T02:00:46;98803.16;;;19.63
64394;BMP280;50712;49.506;10.400;2023-09-30T02:01:17;98806.38;;;19.61
64394;BMP280;50712;49.506;10.400;2023-09-30T02:01:47;98806.13;;;19.59
64394;BMP280;50712;49.506;10.400;2023-09-30T02:02:20;98807.91;;;19.57
64394;BMP280;50712;49.506;10.400;2023-09-30T02:02:51;98804.84;;;19.55
64394;BMP280;50712;49.506;10.400;2023-09-30T02:03:21;98805.31;;;19.53
64394;BMP280;50712;49.506;10.400;2023-09-30T02:03:52;98808.59;;;19.52
64394;BMP280;50712;49.506;10.400;2023-09-30T02:04:23;98809.09;;;19.50
64394;BMP280;50712;49.506;10.400;2023-09-30T02:04:53;98807.53;;;19.49
64394;BMP280;50712;49.506;10.400;2023-09-30T02:05:24;98801.78;;;19.47
64394;BMP280;50712;49.506;10.400;2023-09-30T02:05:55;98812.06;;;19.47
64394;BMP280;50712;49.506;10.400;2023-09-30T02:06:26;98806.25;;;19.45
64394;BMP280;50712;49.506;10.400;2023-09-30T02:06:58;98807.53;;;19.44
64394;BMP280;50712;49.506;10.400;2023-09-30T02:07:30;98818.28;;;19.42
64394;BMP280;50712;49.506;10.400;2023-09-30T02:08:00;98809.72;;;19.40
64394;BMP280;50712;49.506;10.400;2023-09-30T02:08:35;98813.75;;;19.39
64394;BMP280;50712;49.506;10.400;2023-09-30T02:09:07;98812.69;;;19.36
64394;BMP280;50712;49.506;10.400;2023-09-30T02:09:39;98812.44;;;19.34
64394;BMP280;50712;49.506;10.400;2023-09-30T02:10:09;98815.97;;;19.35
64394;BMP280;50712;49.506;10.400;2023-09-30T02:10:40;98814.91;;;19.32
64394;BMP280;50712;49.506;10.400;2023-09-30T02:11:11;98815.69;;;19.33
64394;BMP280;50712;49.506;10.400;2023-09-30T02:11:43;98818.19;;;19.31
64394;BMP280;50712;49.506;10.400;2023-09-30T02:12:13;98820.19;;;19.30
64394;BMP280;50712;49.506;10.400;2023-09-30T02:12:44;98813.91;;;19.30
64394;BMP280;50712;49.506;10.400;2023-09-30T02:13:16;98810.88;;;19.28
64394;BMP280;50712;49.506;10.400;2023-09-30T02:13:47;98819.16;;;19.28
64394;BMP280;50712;49.506;10.400;2023-09-30T02:14:17;98816.38;;;19.28
64394;BMP280;50712;49.506;10.400;2023-09-30T02:14:47;98822.41;;;19.26
64394;BMP280;50712;49.506;10.400;2023-09-30T02:15:18;98810.63;;;19.26
64394;BMP280;50712;49.506;10.400;2023-09-30T02:15:48;98812.63;;;19.25
64394;BMP280;50712;49.506;10.400;2023-09-30T02:16:19;98814.31;;;19.23
64394;BMP280;50712;49.506;10.400;2023-09-30T02:16:49;98817.84;;;19.23
64394;BMP280;50712;49.506;10.400;2023-09-30T02:17:19;98833.66;;;19.23
64394;BMP280;50712;49.506;10.400;2023-09-30T02:17:50;98823.13;;;19.21
64394;BMP280;50712;49.506;10.400;2023-09-30T02:18:20;98821.59;;;19.20
64394;BMP280;50712;49.506;10.400;2023-09-30T02:18:51;98829.88;;;19.20
64394;BMP280;50712;49.506;10.400;2023-09-30T02:19:21;98823.59;;;19.20
64394;BMP280;50712;49.506;10.400;2023-09-30T02:19:52;98828.38;;;19.19
64394;BMP280;50712;49.506;10.400;2023-09-30T02:20:23;98830.38;;;19.19
64394;BMP280;50712;49.506;10.400;2023-09-30T02:20:55;98826.06;;;19.18
64394;BMP280;50712;49.506;10.400;2023-09-30T02:21:26;98833.63;;;19.17
64394;BMP280;50712;49.506;10.400;2023-09-30T02:21:57;98832.13;;;19.16
64394;BMP280;50712;49.506;10.400;2023-09-30T02:22:29;98833.34;;;19.15
64394;BMP280;50712;49.506;10.400;2023-09-30T02:22:59;98834.56;;;19.14
64394;BMP280;50712;49.506;10.400;2023-09-30T02:23:32;98831.81;;;19.14
64394;BMP280;50712;49.506;10.400;2023-09-30T02:24:02;98830.28;;;19.13
64394;BMP280;50712;49.506;10.400;2023-09-30T02:24:33;98837.34;;;19.14
64394;BMP280;50712;49.506;10.400;2023-09-30T02:25:04;98834.31;;;19.12
64394;BMP280;50712;49.506;10.400;2023-09-30T02:25:37;98837.09;;;19.12
64394;BMP280;50712;49.506;10.400;2023-09-30T02:26:08;98834.78;;;19.11
64394;BMP280;50712;49.506;10.400;2023-09-30T02:26:38;98836.78;;;19.10
64394;BMP280;50712;49.506;10.400;2023-09-30T02:27:09;98835.56;;;19.11
64394;BMP280;50712;49.506;10.400;2023-09-30T02:27:40;98840.81;;;19.09
64394;BMP280;50712;49.506;10.400;2023-09-30T02:28:11;98844.34;;;19.10
64394;BMP280;50712;49.506;10.400;2023-09-30T02:28:43;98835.28;;;19.09
64394;BMP280;50712;49.506;10.400;2023-09-30T02:29:13;98836.78;;;19.10
64394;BMP280;50712;49.506;10.400;2023-09-30T02:29:44;98836.03;;;19.10
64394;BMP280;50712;49.506;10.400;2023-09-30T02:30:14;98843.84;;;19.11
64394;BMP280;50712;49.506;10.400;2023-09-30T02:30:46;98848.13;;;19.12
64394;BMP280;50712;49.506;10.400;2023-09-30T02:31:16;98832.78;;;19.11
64394;BMP280;50712;49.506;10.400;2023-09-30T02:31:47;98847.38;;;19.12
64394;BMP280;50712;49.506;10.400;2023-09-30T02:32:18;98841.09;;;19.11
64394;BMP280;50712;49.506;10.400;2023-09-30T02:32:48;98843.06;;;19.11
64394;BMP280;50712;49.506;10.400;2023-09-30T02:33:18;98848.34;;;19.09
64394;BMP280;50712;49.506;10.400;2023-09-30T02:33:49;98847.59;;;19.08
64394;BMP280;50712;49.506;10.400;2023-09-30T02:34:19;98848.81;;;19.07
64394;BMP280;50712;49.506;10.400;2023-09-30T02:34:50;98856.81;;;19.05
64394;BMP280;50712;49.506;10.400;2023-09-30T02:35:20;98856.06;;;19.05
64394;BMP280;50712;49.506;10.400;2023-09-30T02:35:51;98854.56;;;19.04
64394;BMP280;50712;49.506;10.400;2023-09-30T02:36:22;98860.06;;;19.04
64394;BMP280;50712;49.506;10.400;2023-09-30T02:36:53;98855.81;;;19.03
64394;BMP280;50712;49.506;10.400;2023-09-30T02:37:25;98857.03;;;19.02
64394;BMP280;50712;49.506;10.400;2023-09-30T02:37:55;98849.25;;;19.00
64394;BMP280;50712;49.506;10.400;2023-09-30T02:38:26;98854.03;;;19.00
64394;BMP280;50712;49.506;10.400;2023-09-30T02:38:56;98851.72;;;18.98
64394;BMP280;50712;49.506;10.400;2023-09-30T02:39:28;98854.97;;;18.97
64394;BMP280;50712;49.506;10.400;2023-09-30T02:39:58;98854.97;;;18.97
64394;BMP280;50712;49.506;10.400;2023-09-30T02:40:28;98853.94;;;18.94
64394;BMP280;50712;49.506;10.400;2023-09-30T02:40:59;98852.44;;;18.93
64394;BMP280;50712;49.506;10.400;2023-09-30T02:41:29;98852.13;;;18.91
64394;BMP280;50712;49.506;10.400;2023-09-30T02:42:00;98848.66;;;18.91
64394;BMP280;50712;49.506;10.400;2023-09-30T02:42:31;98847.13;;;18.90
64394;BMP280;50712;49.506;10.400;2023-09-30T02:43:02;98856.16;;;18.90
64394;BMP280;50712;49.506;10.400;2023-09-30T02:43:32;98849.88;;;18.90
64394;BMP280;50712;49.506;10.400;2023-09-30T02:44:03;98853.84;;;18.89
64394;BMP280;50712;49.506;10.400;2023-09-30T02:44:34;98853.59;;;18.87
64394;BMP280;50712;49.506;10.400;2023-09-30T02:45:05;98850.09;;;18.86
64394;BMP280;50712;49.506;10.400;2023-09-30T02:45:38;98856.09;;;18.85
64394;BMP280;50712;49.506;10.400;2023-09-30T02:46:08;98856.84;;;18.85
64394;BMP280;50712;49.506;10.400;2023-09-30T02:46:38;98852.56;;;18.84
64394;BMP280;50712;49.506;10.400;2023-09-30T02:47:10;98849.81;;;18.84
64394;BMP280;50712;49.506;10.400;2023-09-30T02:47:40;98845.50;;;18.83
64394;BMP280;50712;49.506;10.400;2023-09-30T02:48:11;98846.72;;;18.82
64394;BMP280;50712;49.506;10.400;2023-09-30T02:48:42;98854.28;;;18.82
64394;BMP280;50712;49.506;10.400;2023-09-30T02:49:12;98853.53;;;18.81
64394;BMP280;50712;49.506;10.400;2023-09-30T02:49:42;98852.78;;;18.81
64394;BMP280;50712;49.506;10.400;2023-09-30T02:50:13;98852.78;;;18.81
64394;BMP280;50712;49.506;10.400;2023-09-30T02:50:44;98850.78;;;18.81
64394;BMP280;50712;49.506;10.400;2023-09-30T02:51:17;98855.53;;;18.81
64394;BMP280;50712;49.506;10.400;2023-09-30T02:51:47;98853.53;;;18.81
64394;BMP280;50712;49.506;10.400;2023-09-30T02:52:17;98850.78;;;18.81
64394;BMP280;50712;49.506;10.400;2023-09-30T02:52:48;98846.50;;;18.80
64394;BMP280;50712;49.506;10.400;2023-09-30T02:53:19;98849.25;;;18.80
64394;BMP280;50712;49.506;10.400;2023-09-30T02:53:50;98847.72;;;18.79
64394;BMP280;50712;49.506;10.400;2023-09-30T02:54:20;98849.69;;;18.79
64394;BMP280;50712;49.506;10.400;2023-09-30T02:54:51;98846.22;;;18.78
64394;BMP280;50712;49.506;10.400;2023-09-30T02:55:21;98846.22;;;18.78
64394;BMP280;50712;49.506;10.400;2023-09-30T02:55:52;98856.47;;;18.78